Time;durP1;ratioP1;P1;durP2;ratioP2;P2;SDS_P1;SDS_P2;PMS_P1;PMS_P2;Temp;Humidity;BMP_temperature;BMP_pressure;BME280_temperature;BME280_humidity;BME280_pressure;Samples;Min_cycle;Max_cycle;Signal;HPM_P1;HPM_P2
2022/04/14 00:02:15;;;;;;;;;25.00;23.00;;;;;13.98;31.35;99201.31;6243056;27;97562;-69
2022/04/14 00:05:19;;;;;;;;;26.00;24.00;;;;;13.92;31.85;99190.59;6242542;27;97286;-70
2022/04/14 00:08:23;;;;;;;;;28.80;23.00;;;;;13.86;31.96;99203.22;6243654;27;97838;-69
2022/04/14 00:11:26;;;;;;;;;25.00;23.00;;;;;13.83;31.40;99203.66;6242640;27;97027;-69
2022/04/14 00:14:30;;;;;;;;;26.60;24.00;;;;;13.80;31.62;99198.72;6237741;27;98275;-70
2022/04/14 00:17:34;;;;;;;;;25.00;22.50;;;;;13.76;31.65;99190.25;6259137;27;97404;-69
2022/04/14 00:20:37;;;;;;;;;23.80;22.80;;;;;13.74;31.97;99194.22;6255198;27;97898;-67
2022/04/14 00:23:42;;;;;;;;;23.60;21.00;;;;;13.70;31.75;99188.47;6242677;27;98395;-70
2022/04/14 00:26:45;;;;;;;;;23.00;20.00;;;;;13.69;31.68;99184.09;6258942;27;97066;-68
2022/04/14 00:29:48;;;;;;;;;23.80;19.40;;;;;13.70;31.59;99190.34;6242321;27;97420;-68
2022/04/14 00:32:52;;;;;;;;;23.00;19.20;;;;;13.74;31.50;99188.81;6259825;27;97066;-70
2022/04/14 00:35:55;;;;;;;;;23.50;21.50;;;;;13.72;31.50;99188.25;6254491;27;97488;-69
2022/04/14 00:39:00;;;;;;;;;21.00;19.40;;;;;13.71;31.55;99184.69;6259319;27;97856;-70
2022/04/14 00:42:09;;;;;;;;;21.80;21.00;;;;;13.73;31.30;99174.44;6247883;27;97427;-71
2022/04/14 00:45:13;;;;;;;;;23.00;20.00;;;;;13.76;31.52;99173.97;6242445;27;97539;-70
2022/04/14 00:48:17;;;;;;;;;24.60;21.00;;;;;13.76;31.39;99194.84;6260743;27;96569;-67
2022/04/14 00:51:20;;;;;;;;;26.00;21.00;;;;;13.79;31.21;99191.66;6247803;27;97463;-72
2022/04/14 00:54:25;;;;;;;;;25.00;22.00;;;;;13.76;31.12;99197.53;6242140;27;97770;-69
2022/04/14 00:57:28;;;;;;;;;22.00;19.00;;;;;13.68;31.27;99204.13;6259537;27;97633;-67
2022/04/14 01:00:31;;;;;;;;;25.60;23.00;;;;;13.64;31.54;99202.94;6259188;27;97443;-70
2022/04/14 01:03:35;;;;;;;;;25.60;23.00;;;;;13.68;31.59;99197.91;6259387;27;96419;-70
2022/04/14 01:06:40;;;;;;;;;25.50;22.00;;;;;13.70;31.65;99196.59;6259408;27;97310;-69
2022/04/14 01:09:46;;;;;;;;;27.00;21.00;;;;;13.72;31.56;99190.94;6251924;27;96727;-69
2022/04/14 01:12:50;;;;;;;;;23.00;21.00;;;;;13.61;31.25;99197.16;6239253;27;97059;-71
2022/04/14 01:15:57;;;;;;;;;25.50;22.50;;;;;13.61;31.62;99206.13;6256512;27;97905;-70
2022/04/14 01:19:01;;;;;;;;;25.25;22.00;;;;;13.53;31.73;99195.66;6259349;27;97501;-71
2022/04/14 01:22:08;;;;;;;;;27.00;24.50;;;;;13.47;31.88;99195.75;6239763;27;97746;-70
2022/04/14 01:25:12;;;;;;;;;23.40;21.80;;;;;13.35;32.15;99187.59;6256921;27;97477;-70
2022/04/14 01:28:17;;;;;;;;;27.40;20.40;;;;;13.31;32.29;99179.09;6259246;27;97470;-72
2022/04/14 01:31:21;;;;;;;;;23.75;21.00;;;;;13.11;32.25;99153.34;6258357;27;97198;-68
2022/04/14 01:34:25;;;;;;;;;28.40;23.40;;;;;13.29;32.36;99188.53;6240949;27;96994;-71
2022/04/14 01:37:28;;;;;;;;;30.20;25.80;;;;;13.25;32.33;99188.16;6255168;27;97945;-70
2022/04/14 01:40:32;;;;;;;;;23.20;21.00;;;;;13.24;32.45;99189.19;6241426;27;98309;-71
2022/04/14 01:43:36;;;;;;;;;25.60;23.00;;;;;13.02;32.33;99155.56;6239942;27;96636;-72
2022/04/14 01:46:41;;;;;;;;;26.60;24.00;;;;;13.23;32.42;99192.16;6259760;27;97270;-70
2022/04/14 01:49:44;;;;;;;;;27.00;24.40;;;;;13.21;32.84;99189.66;6259675;27;97036;-72
2022/04/14 01:52:47;;;;;;;;;26.60;23.00;;;;;13.01;33.29;99184.50;6259432;27;97266;-69
2022/04/14 01:55:52;;;;;;;;;29.50;25.25;;;;;13.08;33.27;99197.97;6250637;27;96568;-72
2022/04/14 01:58:55;;;;;;;;;24.50;22.00;;;;;13.10;33.23;99197.72;6256007;27;96655;-68
2022/04/14 02:01:58;;;;;;;;;25.00;22.00;;;;;13.11;33.47;99192.09;6259039;27;97499;-72
2022/04/14 02:05:02;;;;;;;;;24.20;22.00;;;;;13.10;33.77;99186.88;6259682;27;97684;-70
2022/04/14 02:08:06;;;;;;;;;28.67;23.67;;;;;13.07;33.84;99190.88;6244562;27;97359;-70
2022/04/14 02:11:11;;;;;;;;;29.20;26.80;;;;;13.03;33.60;99189.69;6259993;27;98027;-72
2022/04/14 02:14:15;;;;;;;;;27.60;23.60;;;;;12.96;34.20;99191.66;6229627;27;97968;-70
2022/04/14 02:17:18;;;;;;;;;23.60;22.00;;;;;12.54;34.06;99117.75;6236426;27;99809;-70
2022/04/14 02:20:21;;;;;;;;;23.33;21.33;;;;;12.96;34.45;99191.66;6241910;27;97028;-68
2022/04/14 02:23:24;;;;;;;;;26.20;23.20;;;;;12.94;34.54;99194.63;6263612;27;98078;-70
2022/04/14 02:26:29;;;;;;;;;26.00;21.50;;;;;12.92;34.68;99191.31;6263287;27;97039;-70
2022/04/14 02:29:32;;;;;;;;;27.40;24.80;;;;;12.88;35.03;99192.00;6262500;27;97471;-70
2022/04/14 02:32:35;;;;;;;;;26.00;23.20;;;;;12.80;35.22;99190.44;6260020;27;97046;-70
2022/04/14 02:35:39;;;;;;;;;27.00;24.80;;;;;12.72;35.22;99190.75;6262615;27;97133;-70
2022/04/14 02:38:45;;;;;;;;;29.60;22.60;;;;;12.68;35.38;99194.13;6261723;27;97289;-70
2022/04/14 02:41:49;;;;;;;;;23.50;20.50;;;;;12.63;35.10;99186.72;6261118;27;97536;-68
2022/04/14 02:44:53;;;;;;;;;26.00;24.00;;;;;12.60;35.21;99189.88;6226887;27;99699;-68
2022/04/14 02:47:56;;;;;;;;;27.50;24.50;;;;;12.50;35.81;99184.19;6243759;27;96551;-68
2022/04/14 02:50:59;;;;;;;;;27.60;24.00;;;;;12.45;35.94;99189.44;6243786;27;98781;-69
2022/04/14 02:54:03;;;;;;;;;24.00;22.25;;;;;12.33;36.13;99181.25;6242289;27;97102;-67
2022/04/14 02:57:08;;;;;;;;;28.00;23.00;;;;;12.12;36.57;99184.38;6260624;27;97131;-68
2022/04/14 03:00:12;;;;;;;;;25.75;23.75;;;;;12.16;36.94;99191.00;6255828;27;97624;-68
2022/04/14 03:03:16;;;;;;;;;25.60;21.40;;;;;12.13;36.69;99183.34;6252821;27;97092;-69
2022/04/14 03:06:19;;;;;;;;;25.60;23.00;;;;;12.13;36.78;99186.88;6239149;27;97588;-68
2022/04/14 03:09:23;;;;;;;;;27.80;25.20;;;;;12.12;36.88;99190.63;6251047;27;96996;-67
2022/04/14 03:12:39;;;;;;;;;27.40;25.00;;;;;12.10;37.17;99181.09;6258852;27;96965;-70
2022/04/14 03:15:42;;;;;;;;;27.00;24.50;;;;;12.06;36.94;99174.50;6255531;27;98930;-69
2022/04/14 03:18:45;;;;;;;;;25.50;22.25;;;;;12.06;37.19;99182.59;6236607;27;98398;-69
2022/04/14 03:21:49;;;;;;;;;25.00;23.00;;;;;11.96;37.55;99174.19;6256204;27;97582;-71
2022/04/14 03:24:52;;;;;;;;;24.00;22.80;;;;;11.93;37.52;99180.84;6234948;27;97509;-68
2022/04/14 03:27:57;;;;;;;;;27.00;24.00;;;;;11.95;37.36;99176.06;6227464;27;96969;-70
2022/04/14 03:31:00;;;;;;;;;28.20;24.00;;;;;11.89;37.38;99176.94;6237136;27;97347;-70
2022/04/14 03:34:03;;;;;;;;;27.60;24.60;;;;;11.83;37.12;99185.09;6234479;27;96801;-68
2022/04/14 03:37:07;;;;;;;;;30.40;27.60;;;;;11.78;37.29;99174.16;6255949;27;96957;-68
2022/04/14 03:40:12;;;;;;;;;28.20;25.20;;;;;11.75;37.00;99182.69;6249425;27;97524;-69
2022/04/14 03:43:18;;;;;;;;;28.75;25.75;;;;;11.71;37.24;99177.72;6244102;27;96610;-70
2022/04/14 03:46:21;;;;;;;;;28.00;26.80;;;;;11.71;37.10;99182.28;6258829;27;97501;-69
2022/04/14 03:49:24;;;;;;;;;24.60;23.00;;;;;11.73;37.25;99181.03;6256559;27;97513;-71
2022/04/14 03:52:28;;;;;;;;;28.00;25.60;;;;;11.78;37.28;99177.66;6238522;27;98647;-69
2022/04/14 03:55:31;;;;;;;;;25.00;23.00;;;;;11.83;36.88;99179.69;6208532;27;98303;-69
2022/04/14 03:58:36;;;;;;;;;23.20;21.00;;;;;11.86;37.11;99177.41;6241108;27;98073;-68
2022/04/14 04:01:39;;;;;;;;;23.60;22.00;;;;;11.90;36.92;99181.31;6257329;27;97001;-67
2022/04/14 04:04:43;;;;;;;;;29.00;23.20;;;;;11.84;36.61;99167.84;6257566;27;97018;-72
2022/04/14 04:07:46;;;;;;;;;27.00;23.25;;;;;11.91;36.48;99185.66;6222151;27;97154;-72
2022/04/14 04:10:50;;;;;;;;;27.50;25.00;;;;;11.94;36.93;99181.66;6255130;27;97412;-70
2022/04/14 04:13:55;;;;;;;;;27.00;25.00;;;;;11.99;36.85;99179.13;6239376;27;98637;-71
2022/04/14 04:16:58;;;;;;;;;29.60;26.00;;;;;12.06;36.92;99180.72;6224691;27;98788;-69
2022/04/14 04:20:01;;;;;;;;;27.00;25.00;;;;;12.10;36.87;99176.53;6240146;27;99779;-71
2022/04/14 04:23:05;;;;;;;;;28.00;23.00;;;;;12.10;37.55;99181.94;6258811;27;97457;-69
2022/04/14 04:26:08;;;;;;;;;29.00;27.00;;;;;12.19;36.61;99185.16;6258229;27;97198;-70
2022/04/14 04:29:13;;;;;;;;;29.00;26.00;;;;;12.21;36.91;99176.81;6242831;27;97493;-71
2022/04/14 04:32:16;;;;;;;;;28.60;26.60;;;;;12.30;36.31;99189.81;6258466;27;97369;-72
2022/04/14 04:35:19;;;;;;;;;28.40;26.80;;;;;12.39;35.52;99187.63;6221325;27;98350;-71
2022/04/14 04:38:23;;;;;;;;;33.40;27.00;;;;;12.40;36.30;99179.31;6218992;27;97779;-69
2022/04/14 04:41:26;;;;;;;;;27.00;25.00;;;;;12.64;36.47;99193.78;6256196;27;96558;-70
2022/04/14 04:44:31;;;;;;;;;28.00;26.20;;;;;12.73;35.39;99187.00;6248132;27;98439;-69
2022/04/14 04:47:34;;;;;;;;;30.40;26.00;;;;;12.96;35.08;99187.09;6257877;27;98413;-70
2022/04/14 04:50:38;;;;;;;;;29.00;25.80;;;;;13.15;35.31;99184.34;6239037;27;97160;-69
2022/04/14 04:53:41;;;;;;;;;27.00;24.00;;;;;13.32;34.63;99183.47;6259071;27;96841;-69
2022/04/14 04:56:45;;;;;;;;;28.40;26.40;;;;;13.52;34.04;99185.03;6239837;27;97924;-69
2022/04/14 04:59:49;;;;;;;;;29.50;25.50;;;;;13.71;33.80;99182.00;6258788;27;96798;-70
2022/04/14 05:02:52;;;;;;;;;30.00;25.50;;;;;13.88;33.70;99177.50;6238906;27;96936;-68
2022/04/14 05:05:56;;;;;;;;;31.40;28.40;;;;;14.08;33.60;99188.00;6260456;27;96593;-69
2022/04/14 05:09:00;;;;;;;;;31.60;26.00;;;;;14.24;33.51;99179.13;6241463;27;97396;-71
2022/04/14 05:12:04;;;;;;;;;28.20;25.60;;;;;14.48;32.99;99185.38;6257646;27;97540;-69
2022/04/14 05:15:10;;;;;;;;;26.00;24.00;;;;;14.68;31.89;99195.81;6255144;27;97093;-69
2022/04/14 05:18:13;;;;;;;;;28.00;25.40;;;;;14.82;31.36;99193.63;6238078;27;97956;-72
2022/04/14 05:21:17;;;;;;;;;30.25;26.00;;;;;14.94;30.86;99195.25;6228213;27;98687;-69
2022/04/14 05:24:21;;;;;;;;;25.40;24.00;;;;;15.12;30.91;99189.63;6257105;27;96743;-69
2022/04/14 05:27:24;;;;;;;;;26.25;23.75;;;;;15.31;30.87;99183.97;6239907;27;97166;-70
2022/04/14 05:30:30;;;;;;;;;28.00;24.75;;;;;15.51;31.02;99184.34;6257615;27;97368;-71
2022/04/14 05:33:33;;;;;;;;;25.00;23.25;;;;;15.71;30.37;99183.88;6255023;27;97045;-70
2022/04/14 05:36:36;;;;;;;;;29.25;24.75;;;;;15.87;30.15;99193.91;6253338;27;97652;-69
2022/04/14 05:39:39;;;;;;;;;28.20;24.80;;;;;16.11;30.16;99186.38;6256143;27;97443;-70
2022/04/14 05:42:45;;;;;;;;;26.00;24.00;;;;;16.24;29.47;99186.84;6254247;27;98445;-68
2022/04/14 05:45:51;;;;;;;;;28.40;23.60;;;;;16.47;29.78;99180.34;6257163;27;96589;-70
2022/04/14 05:48:55;;;;;;;;;27.00;25.00;;;;;16.54;29.12;99161.94;6218561;27;99665;-71
2022/04/14 05:51:58;;;;;;;;;28.20;24.20;;;;;16.99;29.24;99196.25;6258662;27;96823;-71
2022/04/14 05:55:02;;;;;;;;;28.75;25.00;;;;;17.16;29.20;99184.16;6257662;27;97535;-71
2022/04/14 05:58:06;;;;;;;;;27.00;25.00;;;;;17.30;28.75;99184.56;6243674;27;99805;-71
2022/04/14 06:01:11;;;;;;;;;28.80;23.80;;;;;17.53;28.69;99188.88;6262646;27;97488;-71
2022/04/14 06:04:14;;;;;;;;;31.00;27.00;;;;;17.76;28.84;99194.00;6262577;27;97382;-71
2022/04/14 06:07:18;;;;;;;;;29.20;26.20;;;;;17.98;28.30;99194.72;6262882;27;98122;-69
2022/04/14 06:10:22;;;;;;;;;29.60;25.60;;;;;18.21;28.23;99190.78;6244563;27;97542;-71
2022/04/14 06:13:25;;;;;;;;;28.00;26.00;;;;;18.32;27.75;99186.22;6261985;27;96745;-71
2022/04/14 06:16:29;;;;;;;;;30.00;26.00;;;;;18.39;27.93;99190.31;6259938;27;96955;-71
2022/04/14 06:19:33;;;;;;;;;27.40;24.00;;;;;18.44;27.41;99190.34;6263701;27;97498;-71
2022/04/14 06:22:38;;;;;;;;;25.60;24.00;;;;;18.67;27.50;99185.59;6259915;27;97521;-70
2022/04/14 06:25:41;;;;;;;;;30.00;25.00;;;;;18.89;27.85;99187.03;6261914;27;97534;-70
2022/04/14 06:28:46;;;;;;;;;30.40;26.00;;;;;19.33;27.64;99192.06;6244820;27;98554;-70
2022/04/14 06:31:52;;;;;;;;;31.40;26.00;;;;;19.72;27.26;99195.13;6261777;27;98448;-69
2022/04/14 06:34:56;;;;;;;;;26.00;24.00;;;;;19.94;26.33;99179.22;6255761;27;97431;-71
2022/04/14 06:37:59;;;;;;;;;26.00;24.00;;;;;20.36;25.94;99191.78;6261215;27;98225;-69
2022/04/14 06:41:02;;;;;;;;;25.40;22.60;;;;;20.66;25.80;99191.69;6260882;27;96823;-71
2022/04/14 06:44:06;;;;;;;;;29.00;24.00;;;;;20.93;25.64;99189.38;6225408;27;98703;-71
2022/04/14 06:47:11;;;;;;;;;31.00;27.00;;;;;21.20;25.24;99194.47;6236857;27;97453;-70
2022/04/14 06:50:15;;;;;;;;;25.60;23.00;;;;;21.49;25.27;99192.63;6242175;27;97732;-71
2022/04/14 06:53:18;;;;;;;;;25.20;24.00;;;;;21.85;25.39;99198.63;6241100;27;98420;-69
2022/04/14 06:56:21;;;;;;;;;27.40;25.00;;;;;22.10;24.74;99197.59;6260334;27;97053;-70
2022/04/14 06:59:24;;;;;;;;;24.33;23.33;;;;;22.40;24.48;99180.81;6261674;27;97125;-69
2022/04/14 07:02:32;;;;;;;;;29.25;26.25;;;;;22.64;24.59;99183.56;6259629;27;98272;-71
2022/04/14 07:05:35;;;;;;;;;30.40;26.80;;;;;22.81;24.20;99180.38;6259420;27;97393;-72
2022/04/14 07:08:38;;;;;;;;;31.75;25.00;;;;;22.88;23.87;99167.88;6243236;27;98026;-71
2022/04/14 07:11:42;;;;;;;;;29.00;26.00;;;;;23.05;24.15;99183.06;6258872;27;97090;-69
2022/04/14 07:14:45;;;;;;;;;28.75;26.25;;;;;23.15;24.06;99178.25;6244566;27;97441;-69
2022/04/14 07:17:50;;;;;;;;;30.00;27.00;;;;;23.14;24.22;99184.88;6235100;28;98013;-70
2022/04/14 07:20:53;;;;;;;;;30.00;28.60;;;;;23.17;24.10;99186.19;6230342;28;96697;-71
2022/04/14 07:23:56;;;;;;;;;31.00;27.40;;;;;23.27;24.05;99186.03;6238592;27;97214;-70
2022/04/14 07:27:00;;;;;;;;;34.80;30.00;;;;;23.44;23.99;99180.84;6244489;27;98068;-70
2022/04/14 07:30:04;;;;;;;;;29.75;28.00;;;;;23.64;24.44;99188.00;6263037;27;97052;-71
2022/04/14 07:33:09;;;;;;;;;29.40;27.00;;;;;23.93;23.87;99185.03;6261238;27;98043;-72
2022/04/14 07:36:17;;;;;;;;;34.00;30.00;;;;;24.15;23.69;99176.91;6266998;27;97450;-72
2022/04/14 07:39:37;;;;;;;;;31.00;28.00;;;;;23.98;23.32;99146.41;6254469;27;97364;-70
2022/04/14 07:42:49;;;;;;;;;33.60;30.80;;;;;23.96;23.71;99162.38;6241845;27;98730;-71
2022/04/14 07:45:52;;;;;;;;;30.80;27.00;;;;;24.09;23.50;99178.16;6238940;27;96604;-70
2022/04/14 07:48:57;;;;;;;;;31.00;29.00;;;;;24.06;23.74;99176.81;6260424;27;97179;-70
2022/04/14 07:52:00;;;;;;;;;32.00;28.20;;;;;23.94;23.51;99181.19;6226378;27;98398;-71
2022/04/14 07:55:04;;;;;;;;;29.00;27.00;;;;;23.89;23.88;99175.75;6261649;27;97255;-70
2022/04/14 07:58:07;;;;;;;;;31.00;29.75;;;;;23.89;24.20;99175.75;6261787;27;96913;-70
2022/04/14 08:01:11;;;;;;;;;31.40;27.40;;;;;23.97;23.33;99177.81;6262267;27;97189;-69
2022/04/14 08:04:15;;;;;;;;;31.00;27.60;;;;;24.08;23.91;99182.03;6260348;27;97470;-71
2022/04/14 08:07:19;;;;;;;;;31.00;27.25;;;;;24.05;23.48;99183.44;6244614;27;97613;-72
2022/04/14 08:10:22;;;;;;;;;30.00;28.00;;;;;24.03;23.91;99193.94;6261250;27;96442;-71
2022/04/14 08:13:27;;;;;;;;;31.50;28.00;;;;;24.19;24.02;99186.22;6260825;27;96660;-72
2022/04/14 08:16:31;;;;;;;;;32.80;29.60;;;;;24.59;24.43;99187.41;6277181;27;97503;-71
2022/04/14 08:19:40;;;;;;;;;34.60;29.40;;;;;25.05;23.29;99190.06;6276367;27;97482;-71
2022/04/14 08:22:50;;;;;;;;;28.20;27.20;;;;;25.61;22.83;99192.38;6221760;28;97657;-72
2022/04/14 08:25:53;;;;;;;;;30.60;26.80;;;;;26.07;22.47;99194.81;6238594;27;97415;-71
2022/04/14 08:29:16;;;;;;;;;29.67;27.00;;;;;26.55;21.27;99191.31;6261693;27;97671;-72
2022/04/14 08:32:20;;;;;;;;;27.80;24.80;;;;;26.81;21.80;99178.41;6260434;27;96679;-70
2022/04/14 08:35:26;;;;;;;;;29.00;25.60;;;;;27.17;21.05;99188.47;6260318;27;97922;-71
2022/04/14 08:38:29;;;;;;;;;27.60;25.60;;;;;27.57;21.13;99187.19;6260154;27;97411;-69
2022/04/14 08:41:37;;;;;;;;;26.00;24.00;;;;;27.79;20.21;99172.34;6240682;27;99724;-71
2022/04/14 08:44:48;;;;;;;;;23.40;22.40;;;;;28.18;20.07;99187.97;6241602;27;99518;-72
2022/04/14 08:47:53;;;;;;;;;27.00;23.40;;;;;28.10;19.40;99153.53;6261518;27;97466;-72
2022/04/14 08:50:58;;;;;;;;;26.40;24.40;;;;;28.39;20.23;99172.25;6242252;27;98017;-71
2022/04/14 08:54:02;;;;;;;;;25.40;23.00;;;;;28.62;19.83;99172.78;6260450;27;97311;-71
2022/04/14 08:57:06;;;;;;;;;25.80;23.20;;;;;28.75;19.81;99175.34;6243203;27;96689;-72
2022/04/14 09:00:12;;;;;;;;;23.60;21.60;;;;;29.10;19.71;99167.63;6259737;27;97426;-72
2022/04/14 09:03:16;;;;;;;;;21.40;18.40;;;;;29.29;19.58;99175.50;6259933;27;98135;-72
2022/04/14 09:06:22;;;;;;;;;22.40;19.40;;;;;29.68;19.38;99177.00;6261120;27;97418;-72
2022/04/14 09:09:26;;;;;;;;;22.80;19.20;;;;;30.06;18.68;99174.03;6260838;27;96786;-72
2022/04/14 09:12:30;;;;;;;;;21.00;18.00;;;;;30.26;17.67;99181.50;6260688;27;96597;-72
2022/04/14 09:15:34;;;;;;;;;22.40;17.60;;;;;30.37;18.21;99168.78;6260465;27;96943;-71
2022/04/14 09:18:37;;;;;;;;;17.20;16.20;;;;;30.62;17.78;99166.03;6239399;27;99638;-71
2022/04/14 09:22:01;;;;;;;;;21.67;19.00;;;;;30.90;18.05;99161.38;6257718;27;97407;-71
2022/04/14 09:25:04;;;;;;;;;19.50;17.00;;;;;31.04;16.99;99153.50;6257192;27;97327;-71
2022/04/14 09:28:12;;;;;;;;;17.00;15.00;;;;;31.09;17.01;99150.50;6242342;27;100514;-72
2022/04/14 09:31:15;;;;;;;;;20.00;15.00;;;;;30.94;17.07;99142.81;6252770;27;98420;-70
2022/04/14 09:34:39;;;;;;;;;17.00;15.00;;;;;30.91;17.49;99121.25;6230154;27;96781;-72
2022/04/14 09:37:43;;;;;;;;;15.60;14.60;;;;;31.28;17.72;99119.22;6241024;27;96674;-70
2022/04/14 09:40:47;;;;;;;;;15.00;14.25;;;;;31.49;16.37;99125.41;6223930;27;100104;-72
2022/04/14 09:43:54;;;;;;;;;17.40;16.00;;;;;31.27;16.67;99103.69;6241335;27;97995;-72
2022/04/14 09:46:58;;;;;;;;;17.40;15.00;;;;;31.30;17.00;99114.13;6259340;27;97491;-72
2022/04/14 09:50:01;;;;;;;;;17.00;14.50;;;;;31.43;17.55;99076.66;6259182;27;97496;-72
2022/04/14 09:53:07;;;;;;;;;17.00;15.00;;;;;31.82;16.16;99098.09;6260613;27;96988;-72
2022/04/14 09:56:11;;;;;;;;;18.33;16.00;;;;;31.92;15.79;99102.34;6242724;27;99023;-72
2022/04/14 09:59:16;;;;;;;;;18.00;16.00;;;;;32.11;16.17;99107.25;6242621;27;96491;-71
2022/04/14 10:02:19;;;;;;;;;17.00;15.00;;;;;32.38;16.32;99098.00;6260217;27;96775;-72
2022/04/14 10:05:34;;;;;;;;;15.00;14.00;;;;;31.88;15.54;99075.53;6260354;27;97193;-73
2022/04/14 10:08:49;;;;;;;;;17.00;15.00;;;;;32.02;15.39;99087.06;6259011;27;97711;-71
2022/04/14 10:11:52;;;;;;;;;14.00;12.00;;;;;32.02;16.66;99087.88;6242577;27;97625;-71
2022/04/14 10:15:01;;;;;;;;;13.50;13.00;;;;;32.38;16.48;99086.84;6257975;27;98090;-70
2022/04/14 10:18:08;;;;;;;;;14.00;13.00;;;;;32.66;16.25;99090.31;6217909;27;97505;-70
2022/04/14 10:21:12;;;;;;;;;17.00;15.00;;;;;32.22;16.00;99074.88;6255713;27;97398;-72
2022/04/14 10:24:18;;;;;;;;;15.00;13.80;;;;;32.41;16.16;99077.72;6257388;27;96430;-70
2022/04/14 10:27:23;;;;;;;;;15.50;13.00;;;;;32.74;16.77;99071.78;6238663;27;97177;-72
2022/04/14 10:30:27;;;;;;;;;14.00;12.25;;;;;33.14;15.29;99063.06;6239956;27;97997;-70
2022/04/14 10:33:33;;;;;;;;;16.00;13.00;;;;;33.45;15.63;99060.16;6258703;27;97109;-70
2022/04/14 10:36:38;;;;;;;;;14.20;13.20;;;;;33.45;15.00;99062.13;6240645;27;100250;-72
2022/04/14 10:39:48;;;;;;;;;17.00;14.20;;;;;33.55;16.19;99057.94;6240917;27;98451;-74
2022/04/14 10:42:54;;;;;;;;;15.00;13.75;;;;;33.26;15.50;99050.97;6263615;27;96631;-73
2022/04/14 10:45:59;;;;;;;;;17.00;14.40;;;;;33.16;15.64;99055.16;6263816;27;96533;-73
2022/04/14 10:49:14;;;;;;;;;15.60;14.00;;;;;33.01;15.76;99048.44;6263886;27;96643;-73
2022/04/14 10:52:25;;;;;;;;;16.00;15.00;;;;;33.09;16.18;99046.59;6264262;27;97242;-71
2022/04/14 10:55:37;;;;;;;;;14.75;13.75;;;;;33.30;16.44;99049.03;6263482;27;96510;-73
2022/04/14 10:58:54;;;;;;;;;18.40;15.00;;;;;33.43;15.89;99051.31;6263811;27;97442;-70
2022/04/14 11:02:05;;;;;;;;;14.00;12.00;;;;;33.38;15.30;99045.25;6263436;27;97879;-71
2022/04/14 11:05:45;;;;;;;;;15.00;14.00;;;;;33.44;15.79;99050.13;6264030;27;96568;-72
2022/04/14 11:08:48;;;;;;;;;17.40;15.00;;;;;33.46;15.15;99039.41;6245937;27;97294;-71
2022/04/14 11:12:03;;;;;;;;;15.20;14.20;;;;;33.31;15.77;99043.09;6263257;27;96625;-71
2022/04/14 11:15:08;;;;;;;;;17.00;15.40;;;;;33.07;15.59;99033.00;6263070;27;96534;-72
2022/04/14 11:18:12;;;;;;;;;15.00;14.40;;;;;33.00;16.14;99046.00;6227924;27;97313;-71
2022/04/14 11:21:15;;;;;;;;;15.00;14.00;;;;;32.78;15.77;99038.34;6243539;27;98792;-73
2022/04/14 11:24:19;;;;;;;;;17.00;14.60;;;;;32.63;15.89;99028.81;6228512;27;97238;-71
2022/04/14 11:27:24;;;;;;;;;20.00;17.00;;;;;32.50;16.06;99032.91;6226572;27;99652;-70
2022/04/14 11:30:41;;;;;;;;;16.40;14.40;;;;;32.73;15.48;99033.84;6243758;27;97830;-71
2022/04/14 11:33:46;;;;;;;;;21.00;19.00;;;;;32.93;15.62;99027.13;6234530;28;99700;-72
2022/04/14 11:36:50;;;;;;;;;16.00;15.00;;;;;33.12;15.84;99001.16;6230738;27;96732;-71
2022/04/14 11:40:12;;;;;;;;;15.80;14.00;;;;;33.75;15.69;99017.59;6236610;28;97597;-72
2022/04/14 11:43:17;;;;;;;;;15.00;13.60;;;;;34.14;15.34;99019.06;6235441;27;96781;-71
2022/04/14 11:46:43;;;;;;;;;18.67;15.00;;;;;34.38;14.63;99006.69;6235867;28;97562;-70
2022/04/14 11:49:47;;;;;;;;;14.40;13.00;;;;;34.22;13.67;98964.03;6234209;28;97255;-70
2022/04/14 11:52:56;;;;;;;;;14.00;13.00;;;;;34.04;13.95;99002.91;6218631;28;98410;-71
2022/04/14 11:55:59;;;;;;;;;14.00;13.00;;;;;34.08;15.76;98984.19;6237398;27;96650;-71
2022/04/14 11:59:08;;;;;;;;;14.00;12.00;;;;;34.27;14.55;98992.50;6237061;28;97305;-71
2022/04/14 12:02:14;;;;;;;;;14.60;13.20;;;;;34.50;14.87;98995.28;6234971;28;98673;-71
2022/04/14 12:05:19;;;;;;;;;14.00;13.00;;;;;34.66;14.07;98987.47;6236528;27;97557;-71
2022/04/14 12:08:23;;;;;;;;;14.00;12.00;;;;;34.67;14.95;98963.94;6226339;28;97449;-70
2022/04/14 12:11:30;;;;;;;;;12.00;11.00;;;;;35.03;14.05;98984.81;6219125;28;98102;-71
2022/04/14 12:14:35;;;;;;;;;14.60;13.00;;;;;34.99;13.95;98980.34;6226599;28;98409;-71
2022/04/14 12:17:38;;;;;;;;;17.60;13.60;;;;;34.91;14.17;98981.44;6193872;28;97986;-71
2022/04/14 12:20:44;;;;;;;;;13.00;12.00;;;;;34.94;13.98;98966.69;6202716;28;97939;-70
2022/04/14 12:23:49;;;;;;;;;13.75;12.00;;;;;35.01;13.62;98975.16;6236262;28;96699;-71
2022/04/14 12:26:52;;;;;;;;;14.00;13.00;;;;;34.87;13.56;98975.78;6234701;28;97438;-71
2022/04/14 12:30:03;;;;;;;;;12.60;12.20;;;;;34.66;13.92;98972.66;6234512;27;96694;-72
2022/04/14 12:33:08;;;;;;;;;15.40;13.40;;;;;34.50;14.66;98966.47;6242415;27;97265;-71
2022/04/14 12:36:12;;;;;;;;;14.40;12.00;;;;;34.48;14.72;98966.84;6260495;27;97542;-71
2022/04/14 12:39:20;;;;;;;;;13.00;12.00;;;;;34.53;14.05;98958.09;6256831;27;96800;-71
2022/04/14 12:42:29;;;;;;;;;16.20;15.00;;;;;34.50;14.21;98953.28;6259614;27;97576;-70
2022/04/14 12:45:38;;;;;;;;;13.00;12.00;;;;;34.47;14.66;98947.59;6240718;27;96817;-70
2022/04/14 12:48:42;;;;;;;;;15.40;12.00;;;;;34.53;14.59;98949.72;6255672;27;97321;-73
2022/04/14 12:51:54;;;;;;;;;14.00;12.00;;;;;34.42;14.37;98945.94;6258591;27;96844;-71
2022/04/14 12:54:58;;;;;;;;;14.20;13.00;;;;;34.38;14.02;98942.28;6257210;27;98338;-71
2022/04/14 12:58:11;;;;;;;;;13.00;11.00;;;;;34.43;14.17;98939.16;6237262;27;97620;-71
2022/04/14 13:01:17;;;;;;;;;11.20;10.80;;;;;34.44;13.85;98938.00;6241304;27;98008;-71
2022/04/14 13:04:30;;;;;;;;;13.75;12.75;;;;;34.41;14.52;98930.34;6220003;27;97980;-71
2022/04/14 13:07:46;;;;;;;;;11.00;11.00;;;;;34.21;14.10;98926.84;6259342;27;97489;-71
2022/04/14 13:10:49;;;;;;;;;13.40;13.00;;;;;34.13;14.56;98921.50;6239347;27;97772;-71
2022/04/14 13:13:52;;;;;;;;;12.40;11.60;;;;;34.01;14.35;98916.16;6224164;27;98547;-70
2022/04/14 13:16:58;;;;;;;;;10.40;10.00;;;;;34.00;13.92;98900.53;6238747;27;98191;-71
2022/04/14 13:20:08;;;;;;;;;12.00;11.00;;;;;34.01;14.73;98900.16;6238995;27;97426;-70
2022/04/14 13:23:13;;;;;;;;;12.00;11.50;;;;;33.97;14.74;98901.28;6236462;27;98049;-72
2022/04/14 13:26:22;;;;;;;;;11.00;10.50;;;;;34.02;14.81;98895.34;6252967;27;97315;-71
2022/04/14 13:29:25;;;;;;;;;12.00;11.20;;;;;34.07;13.97;98889.44;6237779;27;100405;-71
2022/04/14 13:32:30;;;;;;;;;11.00;10.00;;;;;34.06;14.63;98882.25;6252311;27;100941;-70
2022/04/14 13:35:33;;;;;;;;;9.80;8.20;;;;;34.04;14.97;98885.41;6258063;27;98079;-70
2022/04/14 13:38:37;;;;;;;;;12.00;11.00;;;;;33.88;14.55;98851.19;6256093;27;97531;-70
2022/04/14 13:41:40;;;;;;;;;12.00;10.00;;;;;34.05;13.94;98875.84;6239056;27;97140;-73
2022/04/14 13:44:43;;;;;;;;;10.00;9.00;;;;;33.97;14.05;98857.31;6243280;27;96935;-72
2022/04/14 13:47:48;;;;;;;;;10.25;9.00;;;;;33.89;14.55;98867.63;6257132;27;96996;-70
2022/04/14 13:50:52;;;;;;;;;12.20;11.00;;;;;33.72;14.35;98873.72;6253108;27;97511;-71
2022/04/14 13:53:55;;;;;;;;;8.60;8.60;;;;;33.47;14.10;98881.72;6257182;27;96726;-70
2022/04/14 13:56:58;;;;;;;;;12.00;9.60;;;;;33.37;14.10;98873.94;6237762;27;97049;-73
2022/04/14 14:00:02;;;;;;;;;11.00;10.00;;;;;33.30;14.94;98870.22;6229258;27;96852;-71
2022/04/14 14:03:08;;;;;;;;;12.40;11.00;;;;;33.21;14.51;98867.66;6257201;27;96871;-70
2022/04/14 14:06:11;;;;;;;;;12.00;11.40;;;;;33.15;14.52;98866.31;6239384;27;97274;-71
2022/04/14 14:09:15;;;;;;;;;10.00;9.00;;;;;32.88;14.27;98870.22;6220695;27;98910;-70
2022/04/14 14:12:18;;;;;;;;;11.00;10.40;;;;;32.30;14.63;98852.66;6239770;27;98391;-70